Time;durP1;ratioP1;P1;durP2;ratioP2;P2;SDS_P1;SDS_P2;PMS_P1;PMS_P2;Temp;Humidity;BMP_temperature;BMP_pressure;BME280_temperature;BME280_humidity;BME280_pressure;Samples;Min_cycle;Max_cycle;Signal;HPM_P1;HPM_P2
2023/11/08 00:00:37;;;;;;;0.97;0.30;;;15.00;99.90;;;15.11;54.91;100801.09;4866317;28;97660;-45
2023/11/08 00:03:04;;;;;;;2.57;0.40;;;14.80;99.90;;;15.12;54.34;100801.94;4869816;28;121774;-45
2023/11/08 00:05:30;;;;;;;0.30;0.30;;;14.70;99.90;;;15.13;52.11;100803.66;4870962;28;97416;-47
2023/11/08 00:07:56;;;;;;;0.40;0.40;;;14.80;99.90;;;15.36;55.99;100802.47;4873698;28;98402;-47
2023/11/08 00:10:23;;;;;;;0.93;0.23;;;15.10;99.90;;;15.14;51.09;100800.91;4870627;28;104006;-44
2023/11/08 00:12:50;;;;;;;2.33;0.40;;;15.00;99.90;;;15.02;52.08;100806.88;4873373;28;99035;-54
2023/11/08 00:15:16;;;;;;;0.30;0.20;;;14.80;99.90;;;14.96;56.01;100801.88;4874949;28;98185;-50
2023/11/08 00:17:42;;;;;;;0.90;0.40;;;14.60;99.90;;;15.29;53.44;100809.03;4865517;28;97705;-50
2023/11/08 00:20:10;;;;;;;1.53;0.40;;;15.00;99.90;;;15.07;51.56;100791.56;4865003;28;97379;-46
2023/11/08 00:22:37;;;;;;;1.60;0.30;;;14.90;99.90;;;15.02;56.50;100800.69;4871117;28;96964;-49
2023/11/08 00:25:04;;;;;;;2.17;0.60;;;14.70;99.90;;;15.04;55.85;100806.78;4874684;28;97421;-47
2023/11/08 00:27:30;;;;;;;0.93;0.40;;;14.70;99.90;;;14.83;52.35;100811.41;4887581;28;97183;-48
2023/11/08 00:29:56;;;;;;;0.80;0.33;;;14.50;99.90;;;14.93;53.46;100812.69;4893705;28;98177;-48
2023/11/08 00:32:22;;;;;;;0.77;0.40;;;14.60;99.90;;;14.78;56.30;100819.63;4894465;28;111147;-46
2023/11/08 00:34:49;;;;;;;0.13;0.13;;;14.40;99.90;;;14.58;53.22;100819.75;4900040;28;97437;-47
2023/11/08 00:37:15;;;;;;;0.30;0.20;;;14.30;99.90;;;14.45;53.10;100814.19;4888185;28;97444;-44
2023/11/08 00:39:41;;;;;;;0.73;0.30;;;14.20;99.90;;;14.61;54.64;100816.06;4900843;28;97302;-47
2023/11/08 00:42:06;;;;;;;0.30;0.30;;;14.30;99.90;;;14.67;54.75;100815.78;4893978;28;97963;-46
2023/11/08 00:44:32;;;;;;;0.50;0.30;;;14.40;99.90;;;14.67;52.79;100818.44;4880431;28;120108;-47
2023/11/08 00:46:59;;;;;;;0.30;0.20;;;14.40;99.90;;;14.81;58.04;100810.63;4891560;28;118206;-44
2023/11/08 00:49:25;;;;;;;1.13;0.30;;;14.50;99.90;;;14.79;53.39;100821.34;4898307;28;97175;-45
2023/11/08 00:51:50;;;;;;;1.37;0.40;;;14.60;99.90;;;14.79;53.28;100820.47;4899987;28;97381;-44
2023/11/08 00:54:17;;;;;;;3.13;0.50;;;14.60;99.90;;;14.96;52.05;100822.28;4890594;28;110958;-47
2023/11/08 00:56:43;;;;;;;1.60;0.30;;;14.80;99.90;;;15.24;52.13;100832.34;4895499;28;97523;-46
2023/11/08 00:59:08;;;;;;;1.57;0.27;;;15.00;99.90;;;15.08;51.56;100819.84;4889901;28;97230;-46
2023/11/08 01:01:37;;;;;;;1.40;0.30;;;15.00;99.90;;;15.14;51.76;100832.81;4900126;28;112395;-44
2023/11/08 01:04:06;;;;;;;0.77;0.40;;;14.90;99.90;;;15.03;52.78;100827.19;4892049;28;97557;-45
2023/11/08 01:06:32;;;;;;;2.03;0.53;;;14.70;99.90;;;15.29;51.40;100830.28;4894379;28;97301;-44
2023/11/08 01:08:58;;;;;;;2.37;0.40;;;15.00;99.90;;;15.11;52.95;100830.31;4899361;28;97954;-46
2023/11/08 01:11:24;;;;;;;0.60;0.20;;;14.90;99.90;;;15.32;56.65;100830.13;4890791;28;100339;-43
2023/11/08 01:13:51;;;;;;;0.50;0.33;;;15.00;99.90;;;15.28;54.78;100831.22;4902929;28;100378;-44
2023/11/08 01:16:17;;;;;;;0.93;0.30;;;15.00;99.90;;;15.30;51.36;100832.00;4889914;28;96931;-47
2023/11/08 01:18:43;;;;;;;0.73;0.30;;;15.10;99.90;;;15.38;51.63;100835.13;4890351;28;97162;-46
2023/11/08 01:21:09;;;;;;;0.83;0.10;;;15.20;99.90;;;15.34;53.18;100838.91;4884252;28;97491;-46
2023/11/08 01:23:36;;;;;;;1.67;0.40;;;15.10;99.90;;;15.09;51.51;100834.84;4897449;28;99418;-46
2023/11/08 01:26:02;;;;;;;1.30;0.40;;;14.90;99.90;;;14.98;51.49;100839.84;4890065;28;97609;-45
2023/11/08 01:28:29;;;;;;;3.63;0.40;;;14.70;99.90;;;14.90;52.21;100839.41;4893604;28;97592;-46
2023/11/08 01:30:55;;;;;;;1.13;0.20;;;14.60;99.90;;;14.75;51.99;100833.03;4887326;28;98436;-46
2023/11/08 01:33:21;;;;;;;0.60;0.53;;;14.50;99.90;;;14.90;57.23;100834.09;4903333;28;111488;-49
2023/11/08 01:35:47;;;;;;;0.80;0.30;;;14.50;99.90;;;14.99;53.32;100830.94;4896705;28;97345;-46
2023/11/08 01:38:12;;;;;;;0.87;0.20;;;14.70;99.90;;;14.93;53.75;100833.91;4893889;28;111213;-44
2023/11/08 01:40:41;;;;;;;0.60;0.60;;;14.70;99.90;;;14.96;55.12;100836.41;4891138;28;121754;-50
2023/11/08 01:43:07;;;;;;;1.43;0.20;;;14.60;99.90;;;14.92;52.36;100842.81;4901183;28;97158;-48
2023/11/08 01:45:33;;;;;;;1.23;0.50;;;14.60;99.90;;;15.01;53.11;100842.34;4887314;28;108661;-48
2023/11/08 01:47:59;;;;;;;0.53;0.20;;;14.70;99.90;;;14.92;52.61;100841.97;4884969;28;97685;-46
2023/11/08 01:50:25;;;;;;;0.57;0.20;;;14.60;99.90;;;14.85;56.84;100836.94;4894116;28;115932;-48
2023/11/08 01:52:51;;;;;;;0.47;0.33;;;14.50;99.90;;;14.82;52.66;100831.81;4897526;28;97005;-46
2023/11/08 01:55:16;;;;;;;0.10;0.10;;;14.50;99.90;;;14.90;53.15;100834.09;4904836;28;97291;-47
2023/11/08 01:57:44;;;;;;;0.80;0.30;;;14.60;99.90;;;14.77;52.55;100838.28;4900201;28;103173;-44
2023/11/08 02:00:13;;;;;;;0.87;0.40;;;14.50;99.90;;;14.78;55.00;100832.03;4893487;28;99881;-44
2023/11/08 02:02:40;;;;;;;0.83;0.27;;;14.50;99.90;;;14.71;52.81;100827.97;4888727;28;97657;-48
2023/11/08 02:05:07;;;;;;;0.83;0.30;;;14.40;99.90;;;14.82;57.38;100836.25;4908035;28;97498;-44
2023/11/08 02:07:33;;;;;;;3.13;0.40;;;14.40;99.90;;;14.84;53.08;100839.69;4910802;28;99572;-48
2023/11/08 02:09:59;;;;;;;3.80;0.20;;;14.60;99.90;;;14.89;53.98;100829.69;4889262;28;97172;-47
2023/11/08 02:12:27;;;;;;;0.70;0.20;;;14.60;99.90;;;14.68;52.74;100839.59;4902092;28;97480;-46
2023/11/08 02:15:06;;;;;;;0.67;0.53;;;14.40;99.90;;;14.68;53.19;100849.34;4893531;28;97460;-48
2023/11/08 02:17:32;;;;;;;2.03;0.47;;;14.40;99.90;;;14.72;56.46;100845.59;4908006;28;97428;-44
2023/11/08 02:19:57;;;;;;;1.13;0.20;;;14.40;99.90;;;14.66;53.93;100851.22;4900874;28;97257;-45
2023/11/08 02:22:23;;;;;;;2.23;0.27;;;14.30;99.90;;;14.77;55.41;100855.09;4905128;28;112413;-46
2023/11/08 02:24:50;;;;;;;0.63;0.40;;;14.40;99.90;;;14.71;53.24;100849.19;4904597;28;97349;-45
2023/11/08 02:27:16;;;;;;;1.50;0.40;;;14.40;99.90;;;14.81;56.99;100847.81;4885108;28;101472;-45
2023/11/08 02:29:43;;;;;;;1.90;0.50;;;14.40;99.90;;;14.74;53.53;100843.72;4893775;28;104484;-45
2023/11/08 02:32:09;;;;;;;0.40;0.23;;;14.50;99.90;;;14.82;53.61;100841.56;4894434;28;97547;-44
2023/11/08 02:34:35;;;;;;;0.60;0.53;;;14.50;99.90;;;14.67;53.33;100842.34;4887990;28;98847;-44
2023/11/08 02:37:02;;;;;;;0.63;0.30;;;14.40;99.90;;;14.66;56.43;100840.63;4901435;28;97275;-48
2023/11/08 02:39:28;;;;;;;0.93;0.20;;;14.30;99.90;;;14.73;55.77;100842.88;4896181;28;97134;-47
2023/11/08 02:41:55;;;;;;;0.20;0.20;;;14.40;99.90;;;14.75;56.53;100835.69;4884038;28;112172;-44
2023/11/08 02:44:20;;;;;;;0.73;0.30;;;14.40;99.90;;;14.68;53.09;100844.03;4891046;28;106061;-47
2023/11/08 02:46:47;;;;;;;0.60;0.30;;;14.40;99.90;;;14.69;53.67;100845.75;4890674;28;125308;-48
2023/11/08 02:49:13;;;;;;;1.43;0.37;;;14.40;99.90;;;14.60;53.06;100852.38;4908645;28;97594;-44
2023/11/08 02:51:39;;;;;;;0.97;0.30;;;14.30;99.90;;;14.88;52.86;100851.88;4895814;28;97572;-44
2023/11/08 02:54:06;;;;;;;1.13;0.33;;;14.60;99.90;;;14.98;57.30;100847.81;4890746;28;97405;-45
2023/11/08 02:56:38;;;;;;;0.83;0.30;;;14.70;99.90;;;15.00;53.76;100856.56;4888261;28;97793;-47
2023/11/08 02:59:04;;;;;;;1.57;0.47;;;14.80;99.90;;;15.10;52.54;100855.16;4889982;28;99313;-48
2023/11/08 03:01:29;;;;;;;1.03;0.20;;;14.90;99.90;;;15.11;55.42;100853.38;4889084;28;107028;-45
2023/11/08 03:03:55;;;;;;;0.73;0.20;;;14.80;99.90;;;15.05;51.94;100854.56;4892242;28;114709;-48
2023/11/08 03:06:21;;;;;;;0.90;0.40;;;14.80;99.90;;;15.10;54.54;100857.81;4888115;28;116335;-48
2023/11/08 03:08:47;;;;;;;1.43;0.30;;;14.80;99.90;;;15.03;54.65;100856.41;4890276;28;116231;-47
2023/11/08 03:11:13;;;;;;;0.50;0.30;;;14.70;99.90;;;14.97;52.51;100855.88;4892984;28;97367;-47
2023/11/08 03:13:39;;;;;;;0.60;0.30;;;14.70;99.90;;;14.85;52.09;100862.66;4889852;28;97247;-45
2023/11/08 03:16:06;;;;;;;0.70;0.17;;;14.60;99.90;;;14.87;52.98;100855.47;4886428;28;98169;-45
2023/11/08 03:18:32;;;;;;;3.33;0.40;;;14.60;99.90;;;15.12;56.29;100861.25;4885197;28;97329;-47
2023/11/08 03:20:58;;;;;;;2.73;0.60;;;14.80;99.90;;;14.87;52.20;100866.09;4899075;28;102284;-45
2023/11/08 03:23:24;;;;;;;2.00;0.40;;;14.70;99.90;;;14.91;57.02;100862.34;4894824;28;110716;-44
2023/11/08 03:25:51;;;;;;;1.03;0.27;;;14.60;99.90;;;14.79;54.19;100865.63;4887050;28;98464;-46
2023/11/08 03:28:17;;;;;;;2.23;0.30;;;14.50;99.90;;;14.84;56.60;100866.25;4897479;28;99237;-46
2023/11/08 03:30:43;;;;;;;1.17;0.63;;;14.50;99.90;;;14.77;54.95;100868.34;4901159;28;97490;-49
2023/11/08 03:33:09;;;;;;;2.40;0.37;;;14.50;99.90;;;14.81;56.73;100871.72;4892022;28;97007;-43
2023/11/08 03:35:35;;;;;;;1.27;0.30;;;14.50;99.90;;;15.01;57.19;100879.53;4897641;28;97275;-44
2023/11/08 03:38:01;;;;;;;2.60;0.30;;;14.70;99.90;;;15.02;55.02;100886.56;4894014;28;109953;-45
2023/11/08 03:40:27;;;;;;;1.73;0.30;;;14.80;99.90;;;14.99;52.41;100880.56;4893876;28;105219;-48
2023/11/08 03:42:53;;;;;;;1.67;0.50;;;14.80;99.90;;;14.97;54.94;100895.72;4896121;28;97090;-44
2023/11/08 03:45:19;;;;;;;0.70;0.50;;;14.70;99.90;;;14.90;53.30;100887.19;4901055;28;97817;-44
2023/11/08 03:47:45;;;;;;;2.07;0.40;;;14.60;99.90;;;14.85;52.62;100895.38;4895633;28;117459;-44
2023/11/08 03:50:11;;;;;;;2.53;0.87;;;14.60;99.90;;;14.83;52.75;100896.38;4894896;28;97355;-44
2023/11/08 03:52:37;;;;;;;1.70;0.47;;;14.60;99.90;;;14.86;52.75;100896.22;4894978;28;96976;-43
2023/11/08 03:55:04;;;;;;;2.30;0.30;;;14.60;99.90;;;14.92;53.27;100895.09;4895425;28;98948;-44
2023/11/08 03:57:30;;;;;;;3.23;0.20;;;14.60;99.90;;;14.91;53.49;100894.22;4896530;28;97412;-44
2023/11/08 03:59:56;;;;;;;0.53;0.30;;;14.60;99.90;;;15.00;53.07;100888.44;4902797;28;97145;-47
2023/11/08 04:02:23;;;;;;;3.87;0.60;;;14.70;99.90;;;14.91;53.26;100894.22;4897679;28;97724;-44
2023/11/08 04:04:49;;;;;;;0.43;0.30;;;14.70;99.90;;;14.99;52.96;100902.66;4899894;28;99820;-46
2023/11/08 04:07:15;;;;;;;1.03;0.37;;;14.70;99.90;;;14.88;52.81;100900.53;4902961;28;97284;-44
2023/11/08 04:09:43;;;;;;;5.03;0.67;;;14.60;99.90;;;14.80;56.35;100901.88;4901267;28;96971;-48
2023/11/08 04:12:10;;;;;;;0.20;0.20;;;14.50;99.90;;;14.76;52.97;100900.31;4897369;28;97205;-44
2023/11/08 04:14:38;;;;;;;0.60;0.40;;;14.50;99.90;;;14.72;52.58;100904.88;4903892;28;98060;-47
2023/11/08 04:17:04;;;;;;;0.50;0.37;;;14.40;99.90;;;14.75;53.60;100895.91;4900818;28;97102;-45
2023/11/08 04:19:31;;;;;;;1.30;0.47;;;14.50;99.90;;;14.75;55.99;100893.25;4900254;28;97168;-46
2023/11/08 04:21:58;;;;;;;0.73;0.63;;;14.40;99.90;;;14.59;52.45;100894.00;4893353;28;96899;-44
2023/11/08 04:24:24;;;;;;;0.97;0.53;;;14.30;99.90;;;14.67;52.40;100904.25;4907591;28;99555;-46
2023/11/08 04:26:51;;;;;;;4.10;0.50;;;14.40;99.90;;;14.52;52.56;100913.81;4899397;28;97528;-45
2023/11/08 04:29:17;;;;;;;1.27;0.57;;;14.20;99.90;;;14.56;53.43;100906.56;4899476;28;97316;-45
2023/11/08 04:31:44;;;;;;;2.37;0.20;;;14.20;99.90;;;14.58;56.83;100908.19;4901020;28;97127;-45
2023/11/08 04:34:10;;;;;;;1.67;0.40;;;14.20;99.90;;;14.50;53.37;100914.84;4893644;28;99306;-44
2023/11/08 04:36:36;;;;;;;0.80;0.37;;;14.10;99.90;;;14.69;57.46;100914.78;4905569;28;97099;-45
2023/11/08 04:39:02;;;;;;;0.60;0.20;;;14.20;99.90;;;14.74;57.76;100908.31;4898135;28;97751;-43
2023/11/08 04:41:28;;;;;;;1.40;0.43;;;14.30;99.90;;;14.73;54.68;100906.59;4896670;28;97598;-44
2023/11/08 04:43:53;;;;;;;1.40;0.60;;;14.40;99.90;;;14.85;55.83;100910.44;4907717;28;101145;-44
2023/11/08 04:46:19;;;;;;;2.57;0.50;;;14.40;99.90;;;14.84;53.87;100903.41;4899343;28;111580;-44
2023/11/08 04:48:45;;;;;;;2.53;0.53;;;14.40;99.90;;;14.84;55.40;100903.41;4906412;28;119306;-44
2023/11/08 04:51:11;;;;;;;1.00;0.50;;;14.40;99.90;;;14.86;56.37;100901.53;4890076;28;97664;-44
2023/11/08 04:53:37;;;;;;;0.30;0.30;;;14.40;99.90;;;14.84;55.69;100898.09;4895165;28;97451;-45
2023/11/08 04:56:04;;;;;;;0.60;0.20;;;14.40;99.90;;;14.91;56.42;100899.53;4895733;28;97349;-45
2023/11/08 04:58:31;;;;;;;2.37;0.63;;;14.40;99.90;;;14.96;53.23;100902.81;4896276;28;97401;-44
2023/11/08 05:00:56;;;;;;;1.70;0.40;;;14.50;99.90;;;14.91;52.10;100904.84;4896075;28;97228;-45
2023/11/08 05:03:22;;;;;;;0.53;0.33;;;14.50;99.90;;;14.85;52.19;100894.50;4901240;28;121351;-47
2023/11/08 05:05:48;;;;;;;1.47;0.53;;;14.40;99.90;;;14.76;53.10;100900.31;4906124;28;97271;-44
2023/11/08 05:08:14;;;;;;;0.87;0.40;;;14.30;99.90;;;14.86;57.97;100901.53;4911202;28;109362;-44
2023/11/08 05:10:40;;;;;;;0.90;0.50;;;14.30;99.90;;;14.87;54.15;100904.13;4900148;28;113743;-48
2023/11/08 05:13:06;;;;;;;1.67;0.33;;;14.40;99.90;;;14.82;54.29;100905.28;4898265;28;97688;-44
2023/11/08 05:15:32;;;;;;;1.10;0.30;;;14.30;99.90;;;14.94;57.41;100907.34;4900081;28;97002;-46
2023/11/08 05:17:58;;;;;;;0.63;0.40;;;14.40;99.90;;;14.80;52.91;100901.88;4890943;28;97386;-45
2023/11/08 05:20:25;;;;;;;2.10;0.40;;;14.40;99.90;;;14.94;57.45;100907.34;4904643;28;97347;-45
2023/11/08 05:22:54;;;;;;;0.30;0.30;;;14.40;99.90;;;14.94;55.92;100902.03;4900252;28;97099;-44
2023/11/08 05:25:21;;;;;;;0.50;0.33;;;14.40;99.90;;;14.98;56.40;100900.94;4886617;28;98007;-48
2023/11/08 05:27:47;;;;;;;0.67;0.33;;;14.40;99.90;;;15.02;55.60;100907.81;4881011;28;97546;-46
2023/11/08 05:30:15;;;;;;;0.80;0.50;;;14.50;99.90;;;15.04;54.81;100907.72;4892791;28;97189;-46
2023/11/08 05:32:43;;;;;;;2.93;0.20;;;14.50;99.90;;;15.03;54.15;100904.22;4901381;28;97144;-45
2023/11/08 05:35:12;;;;;;;1.17;0.30;;;14.50;99.90;;;15.01;54.97;100902.56;4898180;28;98239;-48
2023/11/08 05:37:39;;;;;;;1.37;0.30;;;14.50;99.90;;;14.98;53.42;100906.25;4897699;28;97236;-45
2023/11/08 05:40:09;;;;;;;1.00;0.33;;;14.40;99.90;;;14.95;51.31;100903.75;4894853;28;97230;-44
2023/11/08 05:42:35;;;;;;;0.97;0.30;;;14.50;99.90;;;14.96;52.08;100907.28;4896814;28;98414;-47
2023/11/08 05:45:01;;;;;;;0.73;0.37;;;14.40;99.90;;;14.95;56.12;100911.72;4898556;28;99900;-46
2023/11/08 05:47:27;;;;;;;0.50;0.20;;;14.40;99.90;;;15.00;52.77;100904.38;4904648;28;97179;-51
2023/11/08 05:49:53;;;;;;;1.90;0.30;;;14.50;99.90;;;15.07;56.36;100911.13;4906584;28;97383;-50
2023/11/08 05:52:19;;;;;;;2.97;0.60;;;14.50;99.90;;;15.07;55.00;100916.44;4900496;28;96704;-45
2023/11/08 05:54:45;;;;;;;0.40;0.30;;;14.50;99.90;;;15.06;56.03;100909.41;4897290;28;99932;-44
2023/11/08 05:57:14;;;;;;;1.23;0.30;;;14.50;99.90;;;15.06;56.56;100912.06;4906898;28;97517;-46
2023/11/08 05:59:42;;;;;;;1.77;0.60;;;14.50;99.90;;;15.00;54.75;100911.47;4894365;28;97429;-47
2023/11/08 06:02:09;;;;;;;0.60;0.30;;;14.50;99.90;;;14.97;53.49;100909.00;4888731;28;97577;-48
2023/11/08 06:04:35;;;;;;;1.30;0.50;;;14.40;99.90;;;15.03;55.11;100912.19;4895172;28;97607;-48
2023/11/08 06:07:01;;;;;;;0.20;0.20;;;14.50;99.90;;;15.08;56.70;100918.16;4891566;28;97434;-44
2023/11/08 06:09:27;;;;;;;1.20;0.33;;;14.50;99.90;;;15.12;56.85;100914.38;4897485;28;97392;-46
2023/11/08 06:11:53;;;;;;;3.97;0.70;;;14.60;99.90;;;14.99;51.37;100918.59;4898723;28;102002;-44
2023/11/08 06:14:19;;;;;;;5.93;0.40;;;14.60;99.90;;;14.90;53.41;100919.06;4901415;28;97147;-45
2023/11/08 06:16:45;;;;;;;0.80;0.30;;;14.50;99.90;;;14.96;52.98;100918.75;4881210;28;96950;-47
2023/11/08 06:19:11;;;;;;;3.07;0.70;;;14.50;99.90;;;14.99;54.13;100920.41;4890946;28;97102;-46
2023/11/08 06:21:37;;;;;;;1.57;0.80;;;14.50;99.90;;;14.92;53.20;100922.50;4898025;28;97045;-44
2023/11/08 06:24:04;;;;;;;0.50;0.50;;;14.50;99.90;;;14.98;53.03;100926.66;4897500;28;99561;-45
2023/11/08 06:26:30;;;;;;;1.07;0.60;;;14.50;99.90;;;15.00;56.52;100930.09;4894578;28;97375;-45
2023/11/08 06:28:56;;;;;;;2.53;0.50;;;14.50;99.90;;;15.02;55.60;100929.06;4900911;28;114032;-44
2023/11/08 06:31:21;;;;;;;0.63;0.40;;;14.50;99.90;;;15.00;56.65;100936.25;4890257;28;97481;-48
2023/11/08 06:33:48;;;;;;;2.30;1.00;;;14.50;99.90;;;14.96;52.45;100934.69;4886904;28;102525;-43
2023/11/08 06:36:15;;;;;;;1.13;0.53;;;14.50;99.90;;;14.98;52.57;100934.63;4879342;28;97563;-48
2023/11/08 06:38:41;;;;;;;1.67;0.80;;;14.50;99.90;;;14.98;52.91;100932.81;4894264;28;97533;-44
2023/11/08 06:41:07;;;;;;;1.30;0.40;;;14.50;99.90;;;15.01;56.80;100943.28;4884599;28;101589;-45
2023/11/08 06:43:33;;;;;;;1.27;0.50;;;14.50;99.90;;;15.08;54.33;100941.19;4900915;28;97061;-45
2023/11/08 06:45:59;;;;;;;1.00;0.43;;;14.60;99.90;;;15.07;52.82;100948.31;4895438;28;110660;-45
2023/11/08 06:48:25;;;;;;;1.37;0.40;;;14.60;99.90;;;15.17;53.18;100954.88;4894835;28;97475;-46
2023/11/08 06:50:51;;;;;;;0.73;0.60;;;14.80;99.90;;;15.25;56.18;100957.16;4887429;28;113405;-46
2023/11/08 06:53:18;;;;;;;0.90;0.40;;;14.80;99.90;;;15.27;51.99;100955.28;4891403;28;98009;-44
2023/11/08 06:55:46;;;;;;;1.53;0.60;;;14.90;99.90;;;15.26;54.13;100958.00;4897540;28;97559;-44
2023/11/08 06:58:12;;;;;;;3.17;0.70;;;14.80;99.90;;;15.21;50.75;100954.75;4906260;28;96916;-46
2023/11/08 07:00:39;;;;;;;1.47;0.60;;;14.90;99.90;;;15.24;52.36;100955.44;4890873;28;98266;-46
2023/11/08 07:03:05;;;;;;;0.37;0.30;;;14.80;99.90;;;15.29;56.28;100963.16;4892459;28;98291;-46
2023/11/08 07:05:32;;;;;;;0.60;0.30;;;14.90;99.90;;;15.39;55.71;100967.09;4893795;28;97448;-49
2023/11/08 07:07:58;;;;;;;1.53;0.63;;;14.90;99.90;;;15.35;51.78;100966.41;4892353;28;103190;-52
2023/11/08 07:10:24;;;;;;;0.70;0.63;;;14.90;99.90;;;15.41;54.60;100967.88;4902650;28;102232;-45
2023/11/08 07:12:52;;;;;;;1.63;0.60;;;15.00;99.90;;;15.41;52.37;100963.41;4901706;28;98431;-46
2023/11/08 07:15:21;;;;;;;2.87;0.80;;;14.90;99.90;;;15.43;55.24;100966.00;4898497;28;97309;-45
2023/11/08 07:17:47;;;;;;;1.10;0.57;;;14.90;99.90;;;15.41;56.11;100970.53;4890589;28;103260;-46
2023/11/08 07:20:13;;;;;;;0.73;0.30;;;14.90;99.90;;;15.41;54.15;100970.53;4888744;28;116997;-45
2023/11/08 07:22:39;;;;;;;1.07;0.47;;;14.90;99.90;;;15.34;52.91;100966.47;4889933;28;97455;-44
2023/11/08 07:25:06;;;;;;;1.03;0.57;;;14.90;99.90;;;15.30;55.04;100970.19;4891104;28;97137;-45
2023/11/08 07:27:32;;;;;;;0.73;0.30;;;14.80;99.90;;;15.32;56.61;100968.31;4887539;28;97453;-47
2023/11/08 07:29:58;;;;;;;1.80;0.50;;;14.90;99.90;;;15.16;52.68;100979.72;4900597;28;97592;-47
2023/11/08 07:32:25;;;;;;;2.97;0.50;;;14.80;99.90;;;15.32;56.21;100978.94;4894059;28;97457;-47
2023/11/08 07:34:52;;;;;;;3.07;0.70;;;14.90;99.90;;;15.25;51.51;100974.91;4894315;28;97246;-45
2023/11/08 07:37:18;;;;;;;1.17;0.30;;;14.90;99.90;;;15.21;56.77;100976.00;4902433;28;99545;-45
2023/11/08 07:39:44;;;;;;;2.00;0.50;;;14.80;99.90;;;15.39;54.27;100969.75;4898100;28;97499;-46
2023/11/08 07:42:10;;;;;;;1.13;0.33;;;15.00;99.90;;;15.32;53.85;100973.63;4901905;28;97239;-45
2023/11/08 07:44:36;;;;;;;3.23;0.70;;;15.00;99.90;;;15.29;51.41;100968.47;4903742;28;97433;-47
2023/11/08 07:47:02;;;;;;;4.53;0.80;;;15.00;99.90;;;15.41;54.11;100979.38;4892460;28;99880;-46
2023/11/08 07:49:28;;;;;;;1.30;0.40;;;15.10;99.90;;;15.40;53.31;100966.16;4897742;28;100156;-47
2023/11/08 07:51:54;;;;;;;0.80;0.40;;;15.00;99.90;;;15.48;56.13;100975.47;4901985;28;97348;-46
2023/11/08 07:54:20;;;;;;;0.67;0.43;;;15.00;99.90;;;15.39;54.79;100967.94;4902023;28;97265;-44
2023/11/08 07:56:46;;;;;;;1.17;0.60;;;15.00;99.90;;;15.46;52.00;100963.16;4901641;28;97325;-44
2023/11/08 07:59:13;;;;;;;6.00;0.70;;;15.10;99.90;;;15.36;49.96;100962.78;4902566;28;97405;-47
2023/11/08 08:01:39;;;;;;;0.87;0.40;;;15.10;99.90;;;15.40;50.40;100971.47;4899104;28;99369;-45
2023/11/08 08:04:05;;;;;;;3.53;0.60;;;15.10;99.90;;;15.52;54.62;100962.88;4922460;28;97437;-46
2023/11/08 08:06:32;;;;;;;3.57;0.70;;;15.20;99.90;;;15.43;51.10;100966.00;4895460;28;97611;-44
2023/11/08 08:08:58;;;;;;;1.07;0.40;;;15.10;99.90;;;15.43;51.38;100966.84;4895165;28;97325;-52
2023/11/08 08:11:24;;;;;;;2.43;0.30;;;15.10;99.90;;;15.49;52.16;100971.00;4912913;28;99396;-46
2023/11/08 08:13:52;;;;;;;0.73;0.40;;;15.20;99.90;;;15.46;51.13;100971.13;4898034;28;111144;-45
2023/11/08 08:16:19;;;;;;;2.27;0.43;;;15.20;99.90;;;15.55;51.15;100976.00;4894357;28;101205;-45
2023/11/08 08:18:47;;;;;;;1.43;0.60;;;15.30;99.90;;;15.47;51.06;100968.41;4899213;28;98292;-45
2023/11/08 08:21:13;;;;;;;2.63;0.70;;;15.20;99.90;;;15.52;54.55;100970.84;4899696;28;97405;-45
2023/11/08 08:23:40;;;;;;;2.10;0.57;;;15.20;99.90;;;15.37;54.81;100966.31;4900307;28;97115;-45
2023/11/08 08:26:07;;;;;;;0.97;0.37;;;15.10;99.90;;;15.25;51.30;100973.09;4901607;28;97613;-48
2023/11/08 08:28:35;;;;;;;0.50;0.20;;;15.00;99.90;;;15.23;55.27;100969.66;4892384;28;98012;-48
2023/11/08 08:31:03;;;;;;;2.63;0.37;;;14.90;99.90;;;15.34;56.01;100971.78;4887769;28;99523;-43
2023/11/08 08:33:30;;;;;;;2.33;0.30;;;15.00;99.90;;;15.33;54.67;100976.22;4902028;28;97250;-45
2023/11/08 08:35:59;;;;;;;1.03;0.30;;;15.00;99.90;;;15.22;55.03;100972.41;4910109;28;97220;-45
2023/11/08 08:38:24;;;;;;;0.57;0.30;;;14.90;99.90;;;15.30;53.92;100975.50;4897595;28;100494;-46
2023/11/08 08:40:51;;;;;;;1.20;0.50;;;15.00;99.90;;;15.28;50.87;100974.75;4904642;28;96661;-45
2023/11/08 08:43:19;;;;;;;3.37;0.50;;;15.10;99.90;;;15.37;53.80;100982.25;4893923;28;97320;-46
2023/11/08 08:45:46;;;;;;;1.50;0.30;;;15.10;99.90;;;15.41;51.75;100973.19;4893844;28;96860;-45
2023/11/08 08:48:11;;;;;;;1.40;0.20;;;15.20;99.90;;;15.35;53.99;100973.50;4906038;28;97426;-44
2023/11/08 08:50:37;;;;;;;0.97;0.40;;;15.10;99.90;;;15.43;55.83;100966.00;4900918;28;98187;-47
2023/11/08 08:53:03;;;;;;;2.00;0.37;;;15.10;99.90;;;15.45;53.19;100969.44;4906870;28;99778;-45
2023/11/08 08:55:29;;;;;;;2.10;0.60;;;15.20;99.90;;;15.42;51.90;100969.59;4903013;28;96988;-48
2023/11/08 08:57:55;;;;;;;0.37;0.30;;;15.30;99.90;;;15.37;51.39;100966.31;4910354;28;98285;-47
2023/11/08 09:00:23;;;;;;;1.77;0.33;;;15.20;99.90;;;15.41;50.74;100967.88;4904913;28;99327;-44
2023/11/08 09:02:49;;;;;;;0.83;0.40;;;15.30;99.90;;;15.34;50.80;100969.13;4894956;28;97320;-45
2023/11/08 09:05:18;;;;;;;2.23;0.30;;;15.20;99.90;;;15.37;55.73;100976.94;4895529;28;97126;-48
2023/11/08 09:07:45;;;;;;;1.13;0.67;;;15.10;99.90;;;15.27;53.78;100981.00;4891284;28;97638;-47
2023/11/08 09:10:10;;;;;;;1.50;0.30;;;15.00;99.90;;;15.37;55.39;100976.94;4892674;28;97280;-44
2023/11/08 09:12:37;;;;;;;3.40;0.60;;;15.10;99.90;;;15.28;50.44;100982.72;4902515;28;97409;-47
2023/11/08 09:15:04;;;;;;;1.57;0.30;;;15.10;99.90;;;15.38;55.44;100983.97;4900364;28;102537;-46
2023/11/08 09:17:31;;;;;;;1.80;0.63;;;15.10;99.90;;;15.38;50.37;100995.47;4892405;28;100535;-45
2023/11/08 09:19:57;;;;;;;0.80;0.30;;;15.30;99.90;;;15.43;51.32;100987.25;4894283;28;97405;-47
2023/11/08 09:22:23;;;;;;;0.30;0.20;;;15.30;99.90;;;15.51;53.92;100985.09;4898104;28;99438;-44
2023/11/08 09:24:49;;;;;;;1.17;0.20;;;15.30;99.90;;;15.58;51.92;100988.28;4909123;28;97093;-48
2023/11/08 09:27:15;;;;;;;1.67;0.30;;;15.50;99.90;;;15.59;53.42;100997.97;4881668;28;97507;-44
2023/11/08 09:29:41;;;;;;;0.97;0.30;;;15.50;99.90;;;15.67;50.44;101006.47;4903976;28;97669;-44
2023/11/08 09:32:07;;;;;;;0.63;0.20;;;15.60;99.90;;;15.60;49.78;101005.91;4885288;28;98431;-48
2023/11/08 09:34:34;;;;;;;0.50;0.30;;;15.50;99.90;;;15.53;52.37;101004.47;4888373;28;102644;-47
2023/11/08 09:37:00;;;;;;;2.67;0.50;;;15.40;99.90;;;15.62;51.56;100993.41;4898902;28;97368;-44
2023/11/08 09:39:31;;;;;;;0.77;0.40;;;15.50;99.90;;;15.75;54.28;100988.28;4902432;28;96689;-47
2023/11/08 09:41:57;;;;;;;0.97;0.40;;;15.60;99.90;;;15.73;49.67;100990.19;4893603;28;97481;-46
2023/11/08 09:44:25;;;;;;;3.97;0.57;;;15.70;99.90;;;15.80;49.66;100991.59;4891878;28;97140;-45
2023/11/08 09:46:56;;;;;;;2.87;0.40;;;15.70;99.90;;;15.83;52.70;100998.56;4894649;28;97736;-46
2023/11/08 09:49:23;;;;;;;1.20;0.20;;;15.70;99.90;;;15.85;54.07;100991.34;4894732;28;98392;-48
2023/11/08 09:51:52;;;;;;;2.63;0.57;;;15.60;99.90;;;15.85;49.17;100991.34;4905201;28;97314;-46
2023/11/08 09:54:18;;;;;;;2.57;0.77;;;15.70;99.90;;;15.62;48.68;100988.09;4909804;28;97317;-45
2023/11/08 09:56:45;;;;;;;2.03;0.47;;;15.50;99.90;;;15.75;51.94;100999.78;4891490;28;97387;-47
2023/11/08 09:59:23;;;;;;;1.67;0.43;;;15.60;99.90;;;15.59;51.36;100988.22;4884736;28;99629;-47
2023/11/08 10:01:53;;;;;;;2.03;0.27;;;15.40;99.90;;;15.80;53.72;100990.75;4874909;28;98106;-49
2023/11/08 10:04:21;;;;;;;2.03;0.80;;;15.60;99.90;;;15.72;49.28;100988.47;4886431;28;97186;-44
2023/11/08 10:06:47;;;;;;;0.60;0.10;;;15.60;99.90;;;15.86;50.23;100982.41;4876525;28;99606;-47